Time;durP1;ratioP1;P1;durP2;ratioP2;P2;SDS_P1;SDS_P2;PMS_P1;PMS_P2;Temp;Humidity;BMP_temperature;BMP_pressure;BME280_temperature;BME280_humidity;BME280_pressure;Samples;Min_cycle;Max_cycle;Signal;HPM_P1;HPM_P2
2021/07/22 00:00:40;;;;;;;17.02;13.43;;;15.90;99.90;;;;;;5065429;28;20044;-70
2021/07/22 00:03:06;;;;;;;16.30;12.18;;;15.90;99.90;;;;;;5066399;28;20044;-70
2021/07/22 00:05:31;;;;;;;14.77;12.25;;;15.90;99.90;;;;;;5065098;28;20041;-69
2021/07/22 00:08:01;;;;;;;12.85;11.43;;;16.00;99.90;;;;;;5065714;28;20598;-69
2021/07/22 00:10:27;;;;;;;13.18;11.27;;;15.90;99.90;;;;;;5065360;28;20040;-69
2021/07/22 00:12:52;;;;;;;13.35;12.15;;;15.90;99.90;;;;;;5065567;28;20485;-70
2021/07/22 00:15:18;;;;;;;13.35;12.05;;;15.90;99.90;;;;;;5064909;28;20482;-70
2021/07/22 00:17:44;;;;;;;9.77;8.80;;;15.80;99.90;;;;;;5065423;28;20040;-70
2021/07/22 00:20:10;;;;;;;11.80;9.88;;;15.80;99.90;;;;;;5068583;28;20450;-70
2021/07/22 00:22:37;;;;;;;11.38;10.00;;;15.80;99.90;;;;;;5065085;28;20052;-70
2021/07/22 00:25:05;;;;;;;12.70;11.38;;;15.70;99.90;;;;;;5065138;28;20036;-70
2021/07/22 00:27:30;;;;;;;12.82;10.05;;;15.70;99.90;;;;;;5064875;28;20036;-70
2021/07/22 00:29:56;;;;;;;12.13;10.25;;;15.70;99.90;;;;;;5066494;28;20045;-70
2021/07/22 00:32:22;;;;;;;14.75;11.60;;;15.70;99.90;;;;;;5064455;28;20044;-70
2021/07/22 00:34:48;;;;;;;13.20;11.77;;;15.70;99.90;;;;;;5064585;28;20040;-70
2021/07/22 00:37:13;;;;;;;10.35;9.10;;;15.80;99.90;;;;;;5065719;28;20085;-70
2021/07/22 00:39:39;;;;;;;11.20;8.82;;;15.80;99.90;;;;;;5065095;28;20050;-70
2021/07/22 00:42:05;;;;;;;11.85;10.65;;;15.80;99.90;;;;;;5064429;28;20043;-70
2021/07/22 00:44:31;;;;;;;18.02;12.07;;;15.90;99.90;;;;;;5064179;28;20044;-70
2021/07/22 00:46:56;;;;;;;14.50;11.70;;;15.90;99.90;;;;;;5065397;28;20079;-70
2021/07/22 00:49:22;;;;;;;13.20;11.65;;;15.90;99.90;;;;;;5064887;28;20036;-70
2021/07/22 00:51:47;;;;;;;17.77;13.80;;;15.90;99.90;;;;;;5064801;28;20044;-70
2021/07/22 00:54:13;;;;;;;14.77;13.27;;;15.90;99.90;;;;;;5064412;28;20033;-70
2021/07/22 00:56:39;;;;;;;17.65;12.65;;;15.90;99.90;;;;;;5063541;28;20044;-70
2021/07/22 00:59:05;;;;;;;14.02;12.57;;;15.90;99.90;;;;;;5064362;28;20532;-70
2021/07/22 01:01:31;;;;;;;13.98;12.57;;;15.90;99.90;;;;;;5063457;28;20040;-70
2021/07/22 01:03:57;;;;;;;16.63;12.45;;;15.90;99.90;;;;;;5065577;28;20048;-70
2021/07/22 01:06:23;;;;;;;14.98;12.27;;;15.90;99.90;;;;;;5064816;28;20426;-70
2021/07/22 01:08:49;;;;;;;14.02;12.50;;;15.90;99.90;;;;;;5065497;28;20044;-70
2021/07/22 01:11:15;;;;;;;14.75;12.45;;;15.90;99.90;;;;;;5063375;28;20097;-70
2021/07/22 01:13:41;;;;;;;14.77;13.27;;;15.90;99.90;;;;;;5064301;28;20048;-70
2021/07/22 01:16:07;;;;;;;18.52;13.38;;;15.90;99.90;;;;;;5063830;28;20044;-70
2021/07/22 01:18:32;;;;;;;14.25;12.85;;;15.90;99.90;;;;;;5063763;28;20033;-70
2021/07/22 01:20:58;;;;;;;13.60;12.32;;;15.90;99.90;;;;;;5064112;28;20375;-70
2021/07/22 01:23:23;;;;;;;13.52;12.30;;;15.90;99.90;;;;;;5063652;28;20359;-70
2021/07/22 01:25:50;;;;;;;13.80;12.35;;;15.90;99.90;;;;;;5064094;28;20739;-70
2021/07/22 01:28:17;;;;;;;13.25;12.05;;;15.90;99.90;;;;;;5063188;28;20037;-70
2021/07/22 01:30:42;;;;;;;14.40;12.65;;;16.00;99.90;;;;;;5063752;28;20044;-70
2021/07/22 01:33:08;;;;;;;19.45;13.90;;;16.00;99.90;;;;;;5062579;28;20047;-70
2021/07/22 01:35:33;;;;;;;15.02;13.13;;;16.00;99.90;;;;;;5064571;28;20375;-70
2021/07/22 01:37:59;;;;;;;15.38;13.02;;;16.00;99.90;;;;;;5063069;28;20037;-70
2021/07/22 01:40:25;;;;;;;14.55;13.10;;;16.00;99.90;;;;;;5064501;28;20459;-70
2021/07/22 01:42:50;;;;;;;14.90;13.23;;;16.00;99.90;;;;;;5063295;28;20047;-70
2021/07/22 01:45:16;;;;;;;17.05;14.93;;;16.00;99.90;;;;;;5062749;28;20040;-70
2021/07/22 01:47:42;;;;;;;18.50;14.18;;;16.00;99.90;;;;;;5062223;28;20574;-70
2021/07/22 01:50:09;;;;;;;17.60;13.05;;;16.00;99.90;;;;;;5063228;28;20040;-70
2021/07/22 01:52:34;;;;;;;13.65;11.48;;;16.00;99.90;;;;;;5062733;28;20626;-70
2021/07/22 01:55:00;;;;;;;13.65;12.25;;;16.00;99.90;;;;;;5064088;28;20036;-70
2021/07/22 01:57:26;;;;;;;12.38;10.85;;;16.00;99.90;;;;;;5063299;28;20041;-70
2021/07/22 01:59:53;;;;;;;12.82;11.52;;;15.90;99.90;;;;;;5064053;28;20086;-70
2021/07/22 02:02:18;;;;;;;12.93;11.55;;;15.90;99.90;;;;;;5062314;28;20444;-70
2021/07/22 02:04:44;;;;;;;13.80;11.73;;;15.90;99.90;;;;;;5063489;28;20036;-70
2021/07/22 02:07:11;;;;;;;13.50;11.65;;;15.90;99.90;;;;;;5063733;28;20032;-70
2021/07/22 02:09:37;;;;;;;15.35;11.85;;;15.90;99.90;;;;;;5062460;28;20044;-70
2021/07/22 02:12:04;;;;;;;15.02;11.82;;;15.90;99.90;;;;;;5063015;28;20068;-70
2021/07/22 02:14:29;;;;;;;14.13;12.38;;;15.90;99.90;;;;;;5061611;28;20123;-70
2021/07/22 02:16:55;;;;;;;14.13;12.73;;;15.90;99.90;;;;;;5063850;28;20123;-70
2021/07/22 02:19:21;;;;;;;13.85;12.40;;;15.90;99.90;;;;;;5064841;28;20036;-69
2021/07/22 02:21:47;;;;;;;13.75;11.98;;;15.90;99.90;;;;;;5063332;28;20573;-70
2021/07/22 02:24:14;;;;;;;13.30;12.00;;;15.90;99.90;;;;;;5063372;28;20108;-70
2021/07/22 02:26:40;;;;;;;12.45;11.15;;;15.90;99.90;;;;;;5062868;28;20047;-70
2021/07/22 02:29:06;;;;;;;14.02;10.13;;;15.90;99.90;;;;;;5064271;28;20128;-70
2021/07/22 02:31:34;;;;;;;12.68;11.10;;;15.90;99.90;;;;;;5064706;28;20115;-70
2021/07/22 02:33:59;;;;;;;12.52;9.88;;;15.90;99.90;;;;;;5064910;28;20086;-70
2021/07/22 02:36:25;;;;;;;13.25;11.00;;;15.80;99.90;;;;;;5065490;28;20564;-70
2021/07/22 02:38:51;;;;;;;17.90;12.65;;;15.80;99.90;;;;;;5066072;28;20391;-70
2021/07/22 02:41:18;;;;;;;14.50;11.52;;;15.70;99.90;;;;;;5063962;28;20553;-70
2021/07/22 02:43:44;;;;;;;13.02;10.70;;;15.70;99.90;;;;;;5063073;28;20044;-70
2021/07/22 02:46:10;;;;;;;15.73;10.70;;;15.70;99.90;;;;;;5062493;28;20036;-70
2021/07/22 02:48:36;;;;;;;15.25;12.45;;;15.60;99.90;;;;;;5064100;28;20115;-70
2021/07/22 02:51:04;;;;;;;14.52;12.98;;;15.60;99.90;;;;;;5065597;28;20487;-70
2021/07/22 02:53:30;;;;;;;16.77;12.82;;;15.60;99.90;;;;;;5065259;28;20363;-70
2021/07/22 02:55:59;;;;;;;16.30;12.55;;;15.60;99.90;;;;;;5065916;28;20041;-70
2021/07/22 02:58:29;;;;;;;19.83;14.40;;;15.60;99.90;;;;;;5064638;28;20419;-70
2021/07/22 03:00:55;;;;;;;17.33;13.65;;;15.60;99.90;;;;;;5065225;28;20071;-70
2021/07/22 03:03:23;;;;;;;16.70;14.07;;;15.60;99.90;;;;;;5065160;28;20036;-70
2021/07/22 03:05:49;;;;;;;19.13;14.90;;;15.60;99.90;;;;;;5066352;28;20033;-70
2021/07/22 03:08:18;;;;;;;19.08;13.73;;;15.60;99.90;;;;;;5067424;28;20052;-70
2021/07/22 03:10:43;;;;;;;18.48;13.85;;;15.60;99.90;;;;;;5068371;28;20051;-70
2021/07/22 03:13:09;;;;;;;15.98;14.30;;;15.70;99.90;;;;;;5065594;28;20546;-70
2021/07/22 03:15:35;;;;;;;18.33;13.85;;;15.70;99.90;;;;;;5065769;28;20040;-70
2021/07/22 03:18:01;;;;;;;16.98;15.05;;;15.70;99.90;;;;;;5065584;28;20045;-70
2021/07/22 03:20:26;;;;;;;21.58;15.38;;;15.70;99.90;;;;;;5065645;28;20046;-70
2021/07/22 03:22:53;;;;;;;17.30;15.45;;;15.70;99.90;;;;;;5067782;28;20516;-69
2021/07/22 03:25:21;;;;;;;16.02;13.93;;;15.70;99.90;;;;;;5067405;28;20047;-70
2021/07/22 03:27:47;;;;;;;21.20;15.57;;;15.80;99.90;;;;;;5067010;28;20111;-70
2021/07/22 03:30:13;;;;;;;16.77;14.82;;;15.80;99.90;;;;;;5066001;28;20111;-70
2021/07/22 03:32:39;;;;;;;16.92;15.00;;;15.80;99.90;;;;;;5065660;28;20044;-70
2021/07/22 03:35:06;;;;;;;17.25;14.73;;;15.80;99.90;;;;;;5067735;28;20147;-70
2021/07/22 03:37:31;;;;;;;16.45;14.68;;;15.80;99.90;;;;;;5065762;28;20119;-70
2021/07/22 03:39:57;;;;;;;15.63;14.02;;;15.80;99.90;;;;;;5067949;28;20127;-70
2021/07/22 03:42:27;;;;;;;15.80;14.27;;;15.80;99.90;;;;;;5062805;28;20577;-70
2021/07/22 03:44:53;;;;;;;17.77;15.88;;;15.80;99.90;;;;;;5067115;28;20482;-70
2021/07/22 03:47:19;;;;;;;18.10;15.80;;;15.90;99.90;;;;;;5067673;28;20064;-70
2021/07/22 03:49:44;;;;;;;15.43;13.73;;;15.90;99.90;;;;;;5065534;28;20068;-70
2021/07/22 03:52:10;;;;;;;16.45;14.75;;;15.90;99.90;;;;;;5066367;28;20111;-70
2021/07/22 03:54:35;;;;;;;17.40;14.80;;;15.90;99.90;;;;;;5063932;28;20043;-70
2021/07/22 03:57:02;;;;;;;17.02;14.13;;;16.00;99.90;;;;;;5066329;28;20588;-70
2021/07/22 03:59:28;;;;;;;17.38;15.30;;;16.00;99.90;;;;;;5066569;28;20445;-70
2021/07/22 04:01:54;;;;;;;17.35;14.15;;;16.00;99.90;;;;;;5065389;28;20040;-70
2021/07/22 04:04:19;;;;;;;18.52;15.35;;;16.00;99.90;;;;;;5064004;28;20040;-70
2021/07/22 04:06:45;;;;;;;20.75;16.42;;;16.00;99.90;;;;;;5064757;28;20033;-69
2021/07/22 04:09:11;;;;;;;20.23;15.73;;;16.00;99.90;;;;;;5067001;28;20051;-70
2021/07/22 04:11:37;;;;;;;17.33;15.35;;;16.00;99.90;;;;;;5066314;28;20483;-70
2021/07/22 04:14:06;;;;;;;17.65;15.20;;;16.00;99.90;;;;;;5068144;28;20391;-70
2021/07/22 04:16:35;;;;;;;17.77;15.60;;;16.00;99.90;;;;;;5067330;28;20040;-70
2021/07/22 04:19:01;;;;;;;19.27;16.17;;;16.10;99.90;;;;;;5068210;28;20040;-70
2021/07/22 04:21:27;;;;;;;16.77;14.93;;;16.10;99.90;;;;;;5070978;28;20102;-70
2021/07/22 04:23:52;;;;;;;26.23;16.00;;;16.10;99.90;;;;;;5072432;28;20395;-70
2021/07/22 04:26:18;;;;;;;18.20;13.95;;;16.10;99.90;;;;;;5069367;28;20072;-70
2021/07/22 04:28:44;;;;;;;18.95;15.73;;;16.10;99.90;;;;;;5070212;28;20068;-70
2021/07/22 04:31:17;;;;;;;20.45;15.40;;;16.20;99.90;;;;;;5069746;28;20123;-69
2021/07/22 04:33:43;;;;;;;17.30;14.38;;;16.20;99.90;;;;;;5066833;28;20063;-69
2021/07/22 04:36:09;;;;;;;16.08;13.88;;;16.20;99.90;;;;;;5069215;28;20036;-70
2021/07/22 04:38:37;;;;;;;18.02;14.98;;;16.20;99.90;;;;;;5068751;28;20086;-70
2021/07/22 04:41:06;;;;;;;18.83;14.65;;;16.30;99.90;;;;;;5069504;28;20486;-70
2021/07/22 04:43:32;;;;;;;16.30;14.05;;;16.30;99.90;;;;;;5070126;28;20486;-70
2021/07/22 04:46:05;;;;;;;16.35;14.52;;;16.30;99.90;;;;;;5070758;28;20115;-70
2021/07/22 04:48:31;;;;;;;15.07;13.48;;;16.30;99.90;;;;;;5066195;28;20051;-70
2021/07/22 04:50:58;;;;;;;18.63;14.50;;;16.40;99.90;;;;;;5067542;28;20037;-70
2021/07/22 04:53:23;;;;;;;17.38;14.35;;;16.40;99.90;;;;;;5067957;28;20039;-70
2021/07/22 04:55:49;;;;;;;18.30;14.43;;;16.40;99.90;;;;;;5069096;28;20036;-70
2021/07/22 04:58:15;;;;;;;15.00;13.40;;;16.40;99.90;;;;;;5067869;28;20490;-70
2021/07/22 05:00:41;;;;;;;14.55;13.05;;;16.40;99.90;;;;;;5069032;28;20433;-70
2021/07/22 05:03:07;;;;;;;16.88;13.30;;;16.40;99.90;;;;;;5066255;28;20037;-70
2021/07/22 05:05:36;;;;;;;15.20;12.65;;;16.50;99.90;;;;;;5070929;28;20032;-70
2021/07/22 05:08:03;;;;;;;14.43;12.63;;;16.40;99.90;;;;;;5067358;28;20107;-70
2021/07/22 05:10:29;;;;;;;18.02;12.98;;;16.40;99.90;;;;;;5067860;28;20044;-70
2021/07/22 05:13:03;;;;;;;18.13;12.88;;;16.50;99.90;;;;;;5067358;28;20051;-70
2021/07/22 05:15:29;;;;;;;15.05;12.25;;;16.50;99.90;;;;;;5070338;28;20040;-70
2021/07/22 05:17:56;;;;;;;15.07;11.38;;;16.50;99.90;;;;;;5064189;28;20055;-70
2021/07/22 05:20:22;;;;;;;13.23;11.90;;;16.60;99.90;;;;;;5068824;28;20520;-70
2021/07/22 05:22:48;;;;;;;12.52;11.25;;;16.50;99.90;;;;;;5066733;28;20033;-70
2021/07/22 05:25:14;;;;;;;12.82;10.25;;;16.60;99.90;;;;;;5069060;28;20072;-70
2021/07/22 05:27:39;;;;;;;13.98;10.13;;;16.70;99.90;;;;;;5069176;28;20402;-70
2021/07/22 05:30:06;;;;;;;11.38;9.77;;;16.70;99.90;;;;;;5063737;28;20029;-70
2021/07/22 05:32:31;;;;;;;12.65;11.00;;;16.70;99.90;;;;;;5068691;28;20048;-70
2021/07/22 05:34:57;;;;;;;12.60;10.07;;;16.80;99.90;;;;;;5069205;28;20036;-70
2021/07/22 05:37:23;;;;;;;13.68;8.73;;;16.80;99.90;;;;;;5067626;28;20044;-70
2021/07/22 05:39:49;;;;;;;11.48;9.55;;;16.90;99.90;;;;;;5069403;28;20398;-70
2021/07/22 05:42:14;;;;;;;10.70;8.38;;;16.90;99.90;;;;;;5068383;28;20190;-70
2021/07/22 05:44:40;;;;;;;10.38;9.13;;;16.90;99.90;;;;;;5068564;28;20040;-70
2021/07/22 05:47:06;;;;;;;15.02;9.13;;;17.00;99.90;;;;;;5063819;28;20394;-70
2021/07/22 05:49:31;;;;;;;12.13;8.43;;;17.00;99.90;;;;;;5063939;28;20052;-70
2021/07/22 05:51:57;;;;;;;13.27;9.63;;;17.00;99.90;;;;;;5067868;28;20076;-70
2021/07/22 05:54:23;;;;;;;10.57;9.02;;;17.00;99.90;;;;;;5067104;28;20056;-70
2021/07/22 05:56:48;;;;;;;10.50;8.07;;;17.10;99.90;;;;;;5066234;28;20036;-70
2021/07/22 05:59:14;;;;;;;12.32;8.15;;;17.10;99.90;;;;;;5068526;28;20455;-70
2021/07/22 06:01:40;;;;;;;12.60;9.13;;;17.20;99.90;;;;;;5069125;28;20037;-70
2021/07/22 06:04:06;;;;;;;10.35;8.43;;;17.20;99.90;;;;;;5068349;28;20504;-70
2021/07/22 06:06:34;;;;;;;10.27;7.65;;;17.30;99.90;;;;;;5068651;28;20036;-70
2021/07/22 06:09:01;;;;;;;17.63;8.18;;;17.30;99.90;;;;;;5068016;28;20072;-70
2021/07/22 06:11:27;;;;;;;11.77;7.78;;;17.30;99.90;;;;;;5065587;28;20033;-70
2021/07/22 06:13:53;;;;;;;8.18;6.50;;;17.40;99.90;;;;;;5067565;28;20555;-70
2021/07/22 06:16:18;;;;;;;9.70;7.10;;;17.50;99.90;;;;;;5066881;28;20123;-70
2021/07/22 06:18:44;;;;;;;7.60;6.75;;;17.60;99.90;;;;;;5067462;28;20033;-70
2021/07/22 06:21:15;;;;;;;9.43;6.95;;;17.60;99.90;;;;;;5068251;28;20033;-70
2021/07/22 06:23:41;;;;;;;7.82;6.10;;;17.60;99.90;;;;;;5064433;28;20032;-70
2021/07/22 06:26:07;;;;;;;6.22;5.45;;;17.70;99.90;;;;;;5062311;28;20094;-71
2021/07/22 06:28:33;;;;;;;8.10;5.70;;;17.80;99.90;;;;;;5063077;28;20040;-70
2021/07/22 06:30:58;;;;;;;6.60;4.80;;;17.70;99.90;;;;;;5060546;28;20043;-70
2021/07/22 06:33:24;;;;;;;8.60;5.45;;;17.80;99.90;;;;;;5062923;28;20036;-71
2021/07/22 06:35:51;;;;;;;9.02;5.97;;;17.80;99.90;;;;;;5063322;28;20107;-73
2021/07/22 06:38:17;;;;;;;4.55;4.07;;;17.80;99.90;;;;;;5062611;28;21675;-71
2021/07/22 06:40:42;;;;;;;13.40;4.38;;;17.90;99.90;;;;;;5061585;28;20052;-71
2021/07/22 06:43:09;;;;;;;5.70;4.40;;;18.00;99.90;;;;;;5063279;28;20032;-71
2021/07/22 06:45:39;;;;;;;9.05;4.10;;;18.00;99.90;;;;;;5063184;28;20035;-71
2021/07/22 06:48:05;;;;;;;6.30;3.92;;;18.20;99.90;;;;;;5061943;28;20098;-71
2021/07/22 06:50:32;;;;;;;7.63;4.90;;;18.30;99.90;;;;;;5064024;28;20040;-71
2021/07/22 06:52:58;;;;;;;5.68;4.40;;;18.50;99.90;;;;;;5061645;28;20037;-71
2021/07/22 06:55:24;;;;;;;5.07;3.42;;;18.70;99.90;;;;;;5064505;28;20040;-71
2021/07/22 06:57:49;;;;;;;6.47;3.47;;;18.80;99.90;;;;;;5062614;28;20044;-71
2021/07/22 07:00:15;;;;;;;9.93;4.07;;;19.20;99.90;;;;;;5062057;28;20076;-71
2021/07/22 07:02:42;;;;;;;5.70;3.33;;;19.40;99.90;;;;;;5062001;28;20102;-71
2021/07/22 07:05:08;;;;;;;3.72;2.88;;;19.60;99.90;;;;;;5060794;28;20048;-71
2021/07/22 07:07:37;;;;;;;5.50;3.88;;;19.70;99.90;;;;;;5061383;28;20042;-71
2021/07/22 07:10:03;;;;;;;4.32;3.35;;;19.70;99.90;;;;;;5061017;28;20490;-71
2021/07/22 07:12:29;;;;;;;7.47;3.00;;;19.70;99.90;;;;;;5063583;28;20073;-71
2021/07/22 07:14:55;;;;;;;5.25;3.38;;;19.80;99.90;;;;;;5063080;28;20045;-71
2021/07/22 07:17:20;;;;;;;6.32;3.30;;;19.80;99.90;;;;;;5062161;28;20048;-71
2021/07/22 07:19:46;;;;;;;5.60;3.60;;;19.80;99.90;;;;;;5062241;28;20040;-71
2021/07/22 07:22:12;;;;;;;7.20;3.55;;;19.70;99.90;;;;;;5060798;28;20052;-71
2021/07/22 07:24:37;;;;;;;4.15;2.63;;;19.70;99.90;;;;;;5061318;28;20048;-71
2021/07/22 07:27:06;;;;;;;3.60;3.30;;;19.80;99.90;;;;;;5061048;28;20799;-71
2021/07/22 07:29:32;;;;;;;5.05;3.05;;;19.90;99.90;;;;;;5061276;28;20127;-71
2021/07/22 07:31:59;;;;;;;4.88;3.22;;;19.90;99.90;;;;;;5059142;28;20787;-71
2021/07/22 07:34:25;;;;;;;7.80;2.70;;;19.90;99.90;;;;;;5060347;28;20041;-71
2021/07/22 07:36:51;;;;;;;8.32;3.08;;;20.00;99.90;;;;;;5062192;28;20040;-71
2021/07/22 07:39:16;;;;;;;4.00;3.00;;;20.00;99.90;;;;;;5060049;28;20429;-71
2021/07/22 07:41:43;;;;;;;3.72;3.03;;;20.20;99.90;;;;;;5059857;28;20028;-71
2021/07/22 07:44:09;;;;;;;5.97;3.22;;;20.40;99.90;;;;;;5060080;28;20482;-71
2021/07/22 07:46:35;;;;;;;4.20;3.15;;;20.50;99.90;;;;;;5062293;28;20033;-71
2021/07/22 07:49:02;;;;;;;3.65;3.10;;;20.60;99.90;;;;;;5063267;28;20563;-71
2021/07/22 07:51:28;;;;;;;4.53;3.13;;;20.60;99.90;;;;;;5063110;28;20562;-71
2021/07/22 07:53:54;;;;;;;4.15;3.25;;;20.60;99.90;;;;;;5063138;28;20066;-71
2021/07/22 07:56:20;;;;;;;6.63;3.58;;;20.50;99.80;;;;;;5066225;28;20028;-71
2021/07/22 07:58:46;;;;;;;4.47;3.05;;;20.60;99.90;;;;;;5066294;28;20177;-71
2021/07/22 08:01:12;;;;;;;4.63;3.28;;;20.60;99.90;;;;;;5066331;28;20047;-71
2021/07/22 08:03:41;;;;;;;4.57;3.28;;;20.70;99.90;;;;;;5065082;28;20094;-71
2021/07/22 08:06:07;;;;;;;4.78;3.40;;;20.80;99.90;;;;;;5066722;28;20099;-71
2021/07/22 08:08:32;;;;;;;6.85;3.50;;;20.90;99.90;;;;;;5064990;28;20119;-71
2021/07/22 08:10:59;;;;;;;5.40;3.50;;;21.00;99.80;;;;;;5065204;28;20036;-71
2021/07/22 08:13:25;;;;;;;6.05;3.47;;;21.30;99.90;;;;;;5064066;28;20052;-71
2021/07/22 08:15:51;;;;;;;4.82;3.08;;;21.30;98.10;;;;;;5066752;28;20037;-71
2021/07/22 08:18:16;;;;;;;5.05;3.83;;;21.20;98.20;;;;;;5064192;28;20066;-71
2021/07/22 08:20:43;;;;;;;3.92;2.70;;;21.10;98.90;;;;;;5065187;28;20164;-71
2021/07/22 08:23:08;;;;;;;4.00;3.42;;;21.10;99.00;;;;;;5063071;28;20047;-71
2021/07/22 08:25:36;;;;;;;6.55;3.40;;;21.00;98.30;;;;;;5065426;28;20036;-71
2021/07/22 08:28:03;;;;;;;3.83;3.45;;;20.80;97.40;;;;;;5066147;28;20036;-71
2021/07/22 08:30:28;;;;;;;6.78;3.10;;;21.00;98.20;;;;;;5063435;28;20059;-71
2021/07/22 08:32:54;;;;;;;4.72;3.50;;;21.20;97.80;;;;;;5065566;28;20478;-71
2021/07/22 08:35:20;;;;;;;4.47;3.28;;;21.30;97.00;;;;;;5065766;28;20155;-71
2021/07/22 08:37:45;;;;;;;6.95;3.92;;;21.40;97.90;;;;;;5065353;28;20436;-71
2021/07/22 08:40:14;;;;;;;4.20;3.72;;;21.30;98.10;;;;;;5065681;28;20087;-71
2021/07/22 08:42:43;;;;;;;6.70;3.67;;;21.20;98.00;;;;;;5065424;28;20036;-71
2021/07/22 08:45:10;;;;;;;4.72;3.95;;;21.20;98.50;;;;;;5061044;28;20067;-71
2021/07/22 08:47:36;;;;;;;4.90;3.30;;;21.10;98.50;;;;;;5065425;28;20036;-71
2021/07/22 08:50:03;;;;;;;4.68;3.70;;;21.10;98.50;;;;;;5065390;28;20115;-71
2021/07/22 08:52:29;;;;;;;6.55;3.40;;;21.10;98.30;;;;;;5064333;28;20033;-71
2021/07/22 08:54:55;;;;;;;7.28;4.07;;;21.10;98.70;;;;;;5064265;28;20688;-71
2021/07/22 08:57:28;;;;;;;4.50;3.53;;;21.20;98.40;;;;;;5063070;28;20044;-71
2021/07/22 08:59:54;;;;;;;6.20;3.53;;;21.20;98.00;;;;;;5067048;28;20043;-71
2021/07/22 09:02:22;;;;;;;5.30;4.07;;;21.30;98.30;;;;;;5064151;28;20131;-71
2021/07/22 09:04:57;;;;;;;4.75;3.67;;;21.20;98.40;;;;;;5064029;28;20090;-71
2021/07/22 09:07:23;;;;;;;4.28;3.85;;;21.30;98.20;;;;;;5064112;28;20560;-71
2021/07/22 09:10:04;;;;;;;6.57;3.67;;;21.30;97.30;;;;;;5065213;28;20097;-71
2021/07/22 09:12:41;;;;;;;3.60;3.30;;;21.40;96.50;;;;;;5065700;28;20044;-72
2021/07/22 09:15:11;;;;;;;6.75;4.00;;;21.40;96.20;;;;;;5064022;28;20429;-71
2021/07/22 09:17:37;;;;;;;5.45;3.25;;;21.40;96.20;;;;;;5065193;28;20158;-71
2021/07/22 09:20:08;;;;;;;5.22;3.97;;;21.60;96.50;;;;;;5064222;28;20062;-71
2021/07/22 09:22:37;;;;;;;4.28;2.40;;;21.80;94.80;;;;;;5063614;28;20093;-71
2021/07/22 09:25:03;;;;;;;4.50;2.92;;;22.00;93.70;;;;;;5064887;28;20517;-71
2021/07/22 09:27:35;;;;;;;3.60;3.15;;;21.90;93.50;;;;;;5062948;28;20068;-72
2021/07/22 09:30:03;;;;;;;4.90;3.58;;;22.00;91.80;;;;;;5066191;28;20036;-71
2021/07/22 09:32:33;;;;;;;5.10;3.92;;;22.20;91.70;;;;;;5061286;28;20056;-71
2021/07/22 09:35:13;;;;;;;6.15;3.28;;;22.20;90.60;;;;;;5064601;28;20101;-71
2021/07/22 09:37:51;;;;;;;6.22;3.40;;;22.30;90.90;;;;;;5063894;28;20497;-71
2021/07/22 09:40:37;;;;;;;5.95;2.85;;;22.50;90.00;;;;;;5064027;28;20049;-71
2021/07/22 09:43:03;;;;;;;4.15;3.28;;;22.80;92.40;;;;;;5063058;28;20047;-71
2021/07/22 09:45:30;;;;;;;3.67;2.90;;;22.90;88.30;;;;;;5064099;28;20033;-71
2021/07/22 09:48:06;;;;;;;3.47;3.17;;;23.30;86.30;;;;;;5064281;28;20093;-71
2021/07/22 09:50:39;;;;;;;3.72;3.00;;;23.30;90.40;;;;;;5063437;28;20044;-72
2021/07/22 09:53:10;;;;;;;6.00;3.42;;;23.30;91.50;;;;;;5063906;28;20075;-72
2021/07/22 09:55:38;;;;;;;5.53;2.70;;;23.20;92.30;;;;;;5063527;28;20394;-72
2021/07/22 09:58:06;;;;;;;4.68;3.00;;;23.00;92.50;;;;;;5060160;28;20685;-72
2021/07/22 10:00:33;;;;;;;6.50;3.03;;;22.80;93.10;;;;;;5063542;28;20044;-72
2021/07/22 10:03:00;;;;;;;6.05;2.75;;;22.80;92.70;;;;;;5062099;28;20045;-72
2021/07/22 10:05:36;;;;;;;5.18;3.28;;;22.80;93.30;;;;;;5064312;28;20109;-72
2021/07/22 10:08:03;;;;;;;6.32;2.78;;;22.90;92.10;;;;;;5063417;28;20036;-72
2021/07/22 10:10:28;;;;;;;6.40;2.80;;;23.10;93.20;;;;;;5060267;28;20501;-72
2021/07/22 10:13:01;;;;;;;3.42;2.88;;;23.30;92.30;;;;;;5062160;28;20094;-72
2021/07/22 10:15:29;;;;;;;8.23;3.40;;;23.30;91.70;;;;;;5062178;28;20045;-72
2021/07/22 10:17:56;;;;;;;5.32;2.75;;;23.20;91.50;;;;;;5061556;28;20068;-71
2021/07/22 10:20:31;;;;;;;3.80;2.80;;;23.10;91.80;;;;;;5063632;28;20045;-72
2021/07/22 10:22:58;;;;;;;10.30;3.25;;;22.90;91.80;;;;;;5063581;28;20093;-72
2021/07/22 10:25:25;;;;;;;5.05;2.55;;;23.00;92.70;;;;;;5060042;28;20066;-72
2021/07/22 10:27:53;;;;;;;5.55;2.70;;;23.20;92.40;;;;;;5062995;28;20098;-72
2021/07/22 10:30:21;;;;;;;5.50;2.13;;;23.40;90.90;;;;;;5060922;28;20128;-72
2021/07/22 10:32:54;;;;;;;3.70;1.90;;;23.60;90.20;;;;;;5063126;28;20094;-72
2021/07/22 10:35:31;;;;;;;5.20;2.88;;;23.80;86.10;;;;;;5062038;28;20040;-72
2021/07/22 10:38:11;;;;;;;6.03;2.38;;;24.00;87.60;;;;;;5059850;28;20120;-72
2021/07/22 10:40:59;;;;;;;2.65;1.83;;;24.20;88.60;;;;;;5063747;28;20048;-72
2021/07/22 10:43:38;;;;;;;2.60;1.90;;;24.50;84.90;;;;;;5062190;28;20059;-72
2021/07/22 10:46:14;;;;;;;2.60;2.10;;;24.60;83.50;;;;;;5059022;28;20108;-72
2021/07/22 10:48:41;;;;;;;4.32;2.13;;;24.40;84.00;;;;;;5064270;28;20052;-72
2021/07/22 10:51:08;;;;;;;2.47;2.00;;;24.20;85.20;;;;;;5061366;28;20045;-72
2021/07/22 10:53:54;;;;;;;6.38;2.65;;;24.10;83.20;;;;;;5063950;28;20028;-72
2021/07/22 10:56:23;;;;;;;4.10;2.90;;;24.30;88.60;;;;;;5065694;28;20049;-72
2021/07/22 10:58:52;;;;;;;7.65;2.47;;;24.30;89.90;;;;;;5065799;28;20037;-72
2021/07/22 11:01:43;;;;;;;5.47;2.33;;;24.50;89.30;;;;;;5062860;28;20111;-72
2021/07/22 11:04:09;;;;;;;6.13;2.80;;;24.40;83.20;;;;;;5064163;28;20044;-72
2021/07/22 11:06:57;;;;;;;4.47;2.17;;;24.30;87.90;;;;;;5064808;28;20044;-72
2021/07/22 11:09:42;;;;;;;4.90;2.15;;;24.20;88.10;;;;;;5063715;28;20036;-72
2021/07/22 11:12:27;;;;;;;6.68;2.45;;;24.20;84.00;;;;;;5064279;28;20086;-72
2021/07/22 11:14:52;;;;;;;4.07;2.50;;;24.10;79.10;;;;;;5064232;28;20448;-73
2021/07/22 11:17:29;;;;;;;3.13;2.08;;;24.10;80.90;;;;;;5061784;28;20045;-72
2021/07/22 11:20:20;;;;;;;4.93;2.28;;;24.00;79.60;;;;;;5065916;28;20044;-72
2021/07/22 11:22:47;;;;;;;2.95;2.55;;;23.80;86.10;;;;;;5063317;28;20071;-72
2021/07/22 11:25:13;;;;;;;3.90;2.13;;;23.60;87.90;;;;;;5063303;28;20037;-72
2021/07/22 11:27:47;;;;;;;3.50;2.10;;;23.50;88.40;;;;;;5066451;28;20048;-72
2021/07/22 11:30:17;;;;;;;4.70;2.28;;;23.50;90.60;;;;;;5067211;28;20102;-72
2021/07/22 11:32:43;;;;;;;3.70;2.33;;;23.60;82.90;;;;;;5070401;28;20048;-72
2021/07/22 11:35:09;;;;;;;4.63;1.80;;;23.70;77.50;;;;;;5069978;28;20060;-72
2021/07/22 11:37:35;;;;;;;3.58;2.03;;;23.90;83.20;;;;;;5072829;28;20401;-72
2021/07/22 11:40:13;;;;;;;5.32;2.72;;;24.10;87.50;;;;;;5070964;28;20132;-72
2021/07/22 11:42:49;;;;;;;3.42;1.92;;;24.10;83.80;;;;;;5067925;28;20114;-72
2021/07/22 11:45:15;;;;;;;4.05;2.20;;;24.10;85.60;;;;;;5069684;28;20045;-72
2021/07/22 11:47:41;;;;;;;3.22;2.13;;;24.20;87.80;;;;;;5071398;28;20173;-72
2021/07/22 11:50:07;;;;;;;4.65;2.22;;;24.30;85.40;;;;;;5072242;28;20376;-72
2021/07/22 11:52:35;;;;;;;3.47;2.08;;;24.00;76.50;;;;;;5068371;28;20487;-72
2021/07/22 11:55:08;;;;;;;3.90;2.83;;;24.10;78.50;;;;;;5069829;28;20111;-72
2021/07/22 11:57:41;;;;;;;3.08;2.17;;;24.10;80.00;;;;;;5072096;28;20051;-72
2021/07/22 12:00:20;;;;;;;3.72;1.83;;;24.10;76.90;;;;;;5070448;28;20429;-72
2021/07/22 12:02:53;;;;;;;6.03;2.38;;;24.00;75.70;;;;;;5069319;28;20482;-71
2021/07/22 12:05:25;;;;;;;3.55;1.70;;;24.00;77.40;;;;;;5069830;28;20048;-72
2021/07/22 12:07:58;;;;;;;2.58;1.88;;;24.00;83.90;;;;;;5069642;28;20483;-72
2021/07/22 12:10:28;;;;;;;4.22;2.15;;;24.10;83.20;;;;;;5070747;28;20090;-72
2021/07/22 12:13:08;;;;;;;3.97;1.88;;;24.20;85.10;;;;;;5067301;28;20039;-72
2021/07/22 12:15:38;;;;;;;4.18;2.35;;;24.40;84.40;;;;;;5070514;28;20063;-71
2021/07/22 12:18:05;;;;;;;3.22;1.60;;;24.40;86.70;;;;;;5068145;28;20068;-71
2021/07/22 12:20:33;;;;;;;6.47;1.80;;;24.50;86.90;;;;;;5064950;28;20041;-72
2021/07/22 12:23:19;;;;;;;2.58;1.60;;;24.60;85.00;;;;;;5067099;28;20048;-72
2021/07/22 12:25:59;;;;;;;4.18;1.85;;;24.50;79.30;;;;;;5067991;28;20033;-72
2021/07/22 12:28:25;;;;;;;5.80;2.10;;;24.40;81.80;;;;;;5065373;28;20735;-70
2021/07/22 12:30:50;;;;;;;4.50;1.63;;;24.40;82.10;;;;;;5068409;28;21725;-70
2021/07/22 12:33:23;;;;;;;5.65;1.30;;;24.40;78.60;;;;;;5066011;28;20036;-70
2021/07/22 12:35:50;;;;;;;7.25;1.70;;;24.30;80.10;;;;;;5065555;28;20108;-73
2021/07/22 12:38:16;;;;;;;12.48;1.85;;;24.30;78.40;;;;;;5067879;28;20396;-72
2021/07/22 12:41:04;;;;;;;3.00;1.50;;;24.40;83.20;;;;;;5069607;28;20094;-73